Time;durP1;ratioP1;P1;durP2;ratioP2;P2;SDS_P1;SDS_P2;PMS_P1;PMS_P2;Temp;Humidity;BMP_temperature;BMP_pressure;BME280_temperature;BME280_humidity;BME280_pressure;Samples;Min_cycle;Max_cycle;Signal;HPM_P1;HPM_P2
2022/09/07 00:01:55;;;;;;;;;;;25.70;50.70;;;;;;1524682;76;1686;-65
2022/09/07 00:03:57;;;;;;;;;;;25.60;50.70;;;;;;1531392;76;759;-65
2022/09/07 00:05:59;;;;;;;;;;;25.70;50.70;;;;;;1534007;76;685;-65
2022/09/07 00:08:01;;;;;;;;;;;25.60;50.70;;;;;;1529612;76;1129;-65
2022/09/07 00:10:03;;;;;;;;;;;25.70;50.70;;;;;;1525473;77;720;-65
2022/09/07 00:12:05;;;;;;;;;;;25.70;50.70;;;;;;1512982;77;837;-65
2022/09/07 00:14:07;;;;;;;;;;;25.70;50.70;;;;;;1520891;76;841;-65
2022/09/07 00:16:10;;;;;;;;;;;25.60;50.70;;;;;;1518518;76;1550;-66
2022/09/07 00:18:12;;;;;;;;;;;25.70;50.80;;;;;;1519618;76;1856;-65
2022/09/07 00:20:14;;;;;;;;;;;25.70;50.80;;;;;;1534748;77;1944;-66
2022/09/07 00:22:16;;;;;;;;;;;25.70;50.70;;;;;;1527915;76;802;-65
2022/09/07 00:24:18;;;;;;;;;;;25.70;50.70;;;;;;1520010;76;717;-65
2022/09/07 00:26:23;;;;;;;;;;;25.70;50.70;;;;;;1525656;77;742;-65
2022/09/07 00:28:25;;;;;;;;;;;25.70;50.60;;;;;;1522661;77;1136;-66
2022/09/07 00:30:27;;;;;;;;;;;25.70;50.60;;;;;;1516619;77;1504;-66
2022/09/07 00:32:29;;;;;;;;;;;25.60;50.50;;;;;;1527538;76;671;-65
2022/09/07 00:34:31;;;;;;;;;;;25.70;50.60;;;;;;1532700;76;831;-66
2022/09/07 00:36:33;;;;;;;;;;;25.70;50.60;;;;;;1528173;76;680;-65
2022/09/07 00:38:35;;;;;;;;;;;25.70;50.50;;;;;;1528284;76;1145;-65
2022/09/07 00:40:36;;;;;;;;;;;25.70;50.50;;;;;;1528127;77;1924;-65
2022/09/07 00:42:38;;;;;;;;;;;25.70;50.50;;;;;;1521575;76;1549;-65
2022/09/07 00:44:45;;;;;;;;;;;25.70;50.40;;;;;;1527657;77;692;-65
2022/09/07 00:46:46;;;;;;;;;;;25.70;50.50;;;;;;1531280;76;869;-65
2022/09/07 00:49:08;;;;;;;;;;;25.70;50.40;;;;;;1537962;76;1181;-66
2022/09/07 00:51:11;;;;;;;;;;;25.70;50.40;;;;;;1524032;77;760;-66
2022/09/07 00:53:21;;;;;;;;;;;25.60;50.40;;;;;;1523387;77;827;-65
2022/09/07 00:55:22;;;;;;;;;;;25.70;50.40;;;;;;1520719;76;719;-65
2022/09/07 00:57:26;;;;;;;;;;;25.70;50.30;;;;;;1526994;77;1583;-65
2022/09/07 00:59:29;;;;;;;;;;;25.70;50.20;;;;;;1529460;77;1694;-65
2022/09/07 01:01:32;;;;;;;;;;;25.70;50.20;;;;;;1526840;76;1920;-68
2022/09/07 01:03:35;;;;;;;;;;;25.60;50.10;;;;;;1516651;76;674;-66
2022/09/07 01:05:45;;;;;;;;;;;25.70;50.10;;;;;;1520570;76;682;-66
2022/09/07 01:07:47;;;;;;;;;;;25.60;50.00;;;;;;1529779;76;1133;-65
2022/09/07 01:09:49;;;;;;;;;;;25.70;50.00;;;;;;1528354;77;689;-65
2022/09/07 01:11:52;;;;;;;;;;;25.70;50.00;;;;;;1525832;76;1558;-65
2022/09/07 01:13:53;;;;;;;;;;;25.70;50.00;;;;;;1524245;76;697;-65
2022/09/07 01:16:12;;;;;;;;;;;25.70;50.00;;;;;;1531671;77;703;-65
2022/09/07 01:18:34;;;;;;;;;;;25.70;50.00;;;;;;1528063;76;1475;-65
2022/09/07 01:20:37;;;;;;;;;;;25.70;50.00;;;;;;1525977;77;1913;-65
2022/09/07 01:22:50;;;;;;;;;;;25.70;50.00;;;;;;1531907;76;699;-65
2022/09/07 01:24:53;;;;;;;;;;;25.70;50.10;;;;;;1526363;76;1585;-65
2022/09/07 01:27:13;;;;;;;;;;;25.70;50.00;;;;;;1526210;77;1958;-65
2022/09/07 01:29:16;;;;;;;;;;;25.60;50.00;;;;;;1522968;76;1149;-66
2022/09/07 01:31:20;;;;;;;;;;;25.70;50.10;;;;;;1528503;76;642;-66
2022/09/07 01:33:23;;;;;;;;;;;25.70;50.10;;;;;;1525099;77;1544;-66
2022/09/07 01:35:30;;;;;;;;;;;25.60;50.10;;;;;;1525809;77;1903;-67
2022/09/07 01:37:33;;;;;;;;;;;25.70;50.10;;;;;;1531745;76;709;-66
2022/09/07 01:39:42;;;;;;;;;;;25.70;50.10;;;;;;1527450;76;1553;-65
2022/09/07 01:41:46;;;;;;;;;;;25.60;50.10;;;;;;1504954;77;1932;-65
2022/09/07 01:43:55;;;;;;;;;;;25.70;50.10;;;;;;1506442;77;1093;-66
2022/09/07 01:45:57;;;;;;;;;;;25.60;50.10;;;;;;1528730;76;1217;-66
2022/09/07 01:48:00;;;;;;;;;;;25.60;50.10;;;;;;1538010;76;1176;-66
2022/09/07 01:50:03;;;;;;;;;;;25.70;50.20;;;;;;1521003;77;776;-67
2022/09/07 01:52:10;;;;;;;;;;;25.60;50.10;;;;;;1525665;76;1676;-66
2022/09/07 01:54:16;;;;;;;;;;;25.60;50.10;;;;;;1501488;77;1615;-66
2022/09/07 01:56:19;;;;;;;;;;;25.60;50.10;;;;;;1528860;77;638;-66
2022/09/07 01:58:23;;;;;;;;;;;25.70;50.10;;;;;;1527827;76;1529;-66
2022/09/07 02:00:25;;;;;;;;;;;25.70;50.20;;;;;;1529153;76;895;-66
2022/09/07 02:02:30;;;;;;;;;;;25.70;50.10;;;;;;1510111;77;1952;-66
2022/09/07 02:04:39;;;;;;;;;;;25.60;50.20;;;;;;1516533;77;668;-66
2022/09/07 02:06:43;;;;;;;;;;;25.60;50.20;;;;;;1535634;76;646;-66
2022/09/07 02:08:46;;;;;;;;;;;25.70;50.20;;;;;;1537215;76;1570;-65
2022/09/07 02:10:50;;;;;;;;;;;25.70;50.20;;;;;;1529384;76;712;-66
2022/09/07 02:12:53;;;;;;;;;;;25.60;50.20;;;;;;1524550;76;1945;-66
2022/09/07 02:14:57;;;;;;;;;;;25.70;50.20;;;;;;1523558;76;1011;-66
2022/09/07 02:17:00;;;;;;;;;;;25.60;50.20;;;;;;1534385;76;1805;-66
2022/09/07 02:19:04;;;;;;;;;;;25.60;50.20;;;;;;1522947;76;1886;-66
2022/09/07 02:21:05;;;;;;;;;;;25.60;50.20;;;;;;1536276;76;1940;-66
2022/09/07 02:23:09;;;;;;;;;;;25.60;50.10;;;;;;1537041;77;664;-66
2022/09/07 02:25:12;;;;;;;;;;;25.70;50.20;;;;;;1530904;76;1185;-66
2022/09/07 02:27:15;;;;;;;;;;;25.60;50.10;;;;;;1520744;76;780;-66
2022/09/07 02:29:17;;;;;;;;;;;25.60;50.10;;;;;;1523925;76;1135;-66
2022/09/07 02:31:19;;;;;;;;;;;25.60;50.10;;;;;;1547874;76;741;-66
2022/09/07 02:33:21;;;;;;;;;;;25.60;50.10;;;;;;1540186;76;664;-66
2022/09/07 02:35:23;;;;;;;;;;;25.70;50.00;;;;;;1535946;76;1554;-68
2022/09/07 02:37:25;;;;;;;;;;;25.60;50.10;;;;;;1537490;76;758;-67
2022/09/07 02:39:27;;;;;;;;;;;25.60;50.10;;;;;;1536447;76;1100;-67
2022/09/07 02:41:30;;;;;;;;;;;25.60;50.10;;;;;;1523680;76;1948;-67
2022/09/07 02:43:32;;;;;;;;;;;25.60;50.10;;;;;;1529631;76;669;-66
2022/09/07 02:45:35;;;;;;;;;;;25.60;50.10;;;;;;1530616;76;728;-67
2022/09/07 02:47:48;;;;;;;;;;;25.60;50.00;;;;;;1522984;76;1064;-67
2022/09/07 02:50:08;;;;;;;;;;;25.60;50.00;;;;;;1521555;76;1565;-67
2022/09/07 02:52:21;;;;;;;;;;;25.60;50.10;;;;;;1522698;77;662;-67
2022/09/07 02:54:24;;;;;;;;;;;25.60;50.00;;;;;;1525958;76;696;-67
2022/09/07 02:56:28;;;;;;;;;;;25.60;50.00;;;;;;1538098;76;610;-68
2022/09/07 02:58:31;;;;;;;;;;;25.60;50.00;;;;;;1523040;76;1177;-68
2022/09/07 03:00:35;;;;;;;;;;;25.60;50.10;;;;;;1520051;77;942;-68
2022/09/07 03:02:41;;;;;;;;;;;25.70;50.00;;;;;;1531923;76;1911;-66
2022/09/07 03:04:45;;;;;;;;;;;25.70;50.00;;;;;;1527985;76;1537;-67
2022/09/07 03:06:55;;;;;;;;;;;25.60;50.00;;;;;;1536561;76;715;-66
2022/09/07 03:08:57;;;;;;;;;;;25.60;50.00;;;;;;1532870;76;1199;-69
2022/09/07 03:10:59;;;;;;;;;;;25.60;49.90;;;;;;1538488;76;681;-76
2022/09/07 03:13:01;;;;;;;;;;;25.70;50.00;;;;;;1533957;76;719;-67
2022/09/07 03:15:03;;;;;;;;;;;25.60;50.00;;;;;;1525862;76;749;-66
2022/09/07 03:17:05;;;;;;;;;;;25.60;50.00;;;;;;1529746;76;753;-65
2022/09/07 03:19:07;;;;;;;;;;;25.60;50.10;;;;;;1533068;76;1698;-67
2022/09/07 03:21:09;;;;;;;;;;;25.60;50.10;;;;;;1529614;77;1941;-66
2022/09/07 03:23:11;;;;;;;;;;;25.60;50.10;;;;;;1524686;76;733;-66
2022/09/07 03:25:13;;;;;;;;;;;25.60;50.10;;;;;;1535086;76;756;-67
2022/09/07 03:27:15;;;;;;;;;;;25.60;50.20;;;;;;1528072;76;712;-67
2022/09/07 03:29:17;;;;;;;;;;;25.50;50.30;;;;;;1537759;76;1225;-66
2022/09/07 03:31:19;;;;;;;;;;;25.60;50.20;;;;;;1541377;76;1555;-67
2022/09/07 03:33:21;;;;;;;;;;;25.60;50.30;;;;;;1534160;77;693;-67
2022/09/07 03:35:23;;;;;;;;;;;25.50;50.30;;;;;;1534943;76;719;-67
2022/09/07 03:37:25;;;;;;;;;;;25.60;50.30;;;;;;1535539;76;676;-67
2022/09/07 03:39:27;;;;;;;;;;;25.50;50.30;;;;;;1538859;76;1110;-66
2022/09/07 03:41:29;;;;;;;;;;;25.60;50.30;;;;;;1537813;76;1906;-67
2022/09/07 03:43:31;;;;;;;;;;;25.50;50.30;;;;;;1538484;77;707;-67
2022/09/07 03:45:33;;;;;;;;;;;25.60;50.40;;;;;;1538746;76;1533;-67
2022/09/07 03:47:35;;;;;;;;;;;25.50;50.40;;;;;;1530120;76;617;-67
2022/09/07 03:49:37;;;;;;;;;;;25.60;50.40;;;;;;1536904;76;1179;-67
2022/09/07 03:51:39;;;;;;;;;;;25.60;50.30;;;;;;1537393;76;797;-67
2022/09/07 03:53:41;;;;;;;;;;;25.60;50.50;;;;;;1535352;76;793;-67
2022/09/07 03:55:43;;;;;;;;;;;25.50;50.40;;;;;;1534487;76;674;-67
2022/09/07 03:57:45;;;;;;;;;;;25.50;50.40;;;;;;1531754;76;1144;-67
2022/09/07 03:59:48;;;;;;;;;;;25.50;50.40;;;;;;1545861;75;1567;-67
2022/09/07 04:01:50;;;;;;;;;;;25.60;50.40;;;;;;1539794;75;1947;-67
2022/09/07 04:03:52;;;;;;;;;;;25.50;50.40;;;;;;1540272;76;716;-67
2022/09/07 04:05:56;;;;;;;;;;;25.60;50.50;;;;;;1540867;76;726;-67
2022/09/07 04:07:57;;;;;;;;;;;25.50;50.40;;;;;;1540431;75;1140;-67
2022/09/07 04:09:59;;;;;;;;;;;25.50;50.40;;;;;;1504512;77;773;-67
2022/09/07 04:12:01;;;;;;;;;;;25.50;50.30;;;;;;1540335;76;879;-66
2022/09/07 04:14:03;;;;;;;;;;;25.50;50.40;;;;;;1508607;77;1551;-65
2022/09/07 04:16:18;;;;;;;;;;;25.50;50.40;;;;;;1505898;77;714;-66
2022/09/07 04:18:20;;;;;;;;;;;25.50;50.50;;;;;;1542128;75;1117;-66
2022/09/07 04:20:22;;;;;;;;;;;25.50;50.40;;;;;;1525558;77;747;-65
2022/09/07 04:22:24;;;;;;;;;;;25.50;50.40;;;;;;1532320;76;1929;-66
2022/09/07 04:24:26;;;;;;;;;;;25.50;50.40;;;;;;1531667;76;747;-66
2022/09/07 04:26:29;;;;;;;;;;;25.50;50.40;;;;;;1526659;77;715;-66
2022/09/07 04:28:30;;;;;;;;;;;25.50;50.40;;;;;;1529176;76;1616;-67
2022/09/07 04:30:34;;;;;;;;;;;25.50;50.40;;;;;;1529616;76;829;-67
2022/09/07 04:32:36;;;;;;;;;;;25.50;50.40;;;;;;1529166;76;665;-65
2022/09/07 04:34:38;;;;;;;;;;;25.50;50.40;;;;;;1533067;76;806;-67
2022/09/07 04:36:40;;;;;;;;;;;25.50;50.40;;;;;;1531048;76;771;-67
2022/09/07 04:38:42;;;;;;;;;;;25.50;50.30;;;;;;1531571;76;1093;-66
2022/09/07 04:40:44;;;;;;;;;;;25.50;50.40;;;;;;1531489;77;735;-66
2022/09/07 04:42:46;;;;;;;;;;;25.50;50.30;;;;;;1529541;77;1908;-65
2022/09/07 04:44:50;;;;;;;;;;;25.50;50.40;;;;;;1530576;76;680;-66
2022/09/07 04:46:52;;;;;;;;;;;25.50;50.40;;;;;;1529147;77;993;-66
2022/09/07 04:48:54;;;;;;;;;;;25.50;50.30;;;;;;1549354;73;2092;-65
2022/09/07 04:50:58;;;;;;;;;;;25.40;50.40;;;;;;1552757;74;739;-64
2022/09/07 04:53:00;;;;;;;;;;;25.50;50.30;;;;;;1549930;74;2027;-64
2022/09/07 04:55:03;;;;;;;;;;;25.50;50.20;;;;;;1551955;74;802;-67
2022/09/07 04:57:05;;;;;;;;;;;25.50;50.30;;;;;;1547267;75;1549;-65
2022/09/07 04:59:07;;;;;;;;;;;25.40;50.20;;;;;;1540537;75;1200;-65
2022/09/07 05:01:09;;;;;;;;;;;25.50;50.20;;;;;;1542066;76;782;-64
2022/09/07 05:03:11;;;;;;;;;;;25.40;50.20;;;;;;1538631;75;1944;-64
2022/09/07 05:05:13;;;;;;;;;;;25.50;50.20;;;;;;1544110;76;732;-64
2022/09/07 05:07:15;;;;;;;;;;;25.50;50.20;;;;;;1539146;75;749;-65
2022/09/07 05:09:16;;;;;;;;;;;25.50;50.20;;;;;;1537965;76;1215;-64
2022/09/07 05:11:19;;;;;;;;;;;25.50;50.20;;;;;;1541749;75;1567;-65
2022/09/07 05:13:21;;;;;;;;;;;25.50;50.10;;;;;;1542986;76;713;-64
2022/09/07 05:15:23;;;;;;;;;;;25.40;50.10;;;;;;1536852;76;729;-64
2022/09/07 05:17:24;;;;;;;;;;;25.50;50.10;;;;;;1543855;76;717;-64
2022/09/07 05:19:26;;;;;;;;;;;25.50;50.20;;;;;;1544030;75;1144;-64
2022/09/07 05:21:29;;;;;;;;;;;25.50;50.10;;;;;;1541534;76;696;-65
2022/09/07 05:23:31;;;;;;;;;;;25.50;50.00;;;;;;1539445;76;1943;-64
2022/09/07 05:25:33;;;;;;;;;;;25.40;50.10;;;;;;1539110;76;1586;-63
2022/09/07 05:27:35;;;;;;;;;;;25.40;50.10;;;;;;1542829;75;792;-66
2022/09/07 05:29:36;;;;;;;;;;;25.40;50.10;;;;;;1541127;76;1124;-64
2022/09/07 05:31:39;;;;;;;;;;;25.40;50.00;;;;;;1539540;76;759;-66
2022/09/07 05:33:42;;;;;;;;;;;25.50;50.00;;;;;;1540028;76;763;-65
2022/09/07 05:35:44;;;;;;;;;;;25.50;50.00;;;;;;1539872;75;1968;-64
2022/09/07 05:37:49;;;;;;;;;;;25.50;50.00;;;;;;1538355;76;692;-64
2022/09/07 05:39:55;;;;;;;;;;;25.50;50.00;;;;;;1539488;75;1526;-65
2022/09/07 05:41:55;;;;;;;;;;;25.40;50.00;;;;;;1536684;76;1966;-64
2022/09/07 05:43:57;;;;;;;;;;;25.40;50.00;;;;;;1538787;76;739;-65
2022/09/07 05:45:58;;;;;;;;;;;25.40;50.00;;;;;;1553803;75;1246;-64
2022/09/07 05:48:00;;;;;;;;;;;25.50;50.00;;;;;;1553888;76;707;-64
2022/09/07 05:50:02;;;;;;;;;;;25.50;50.00;;;;;;1554242;76;1162;-64
2022/09/07 05:52:04;;;;;;;;;;;25.50;50.00;;;;;;1555126;75;1567;-65
2022/09/07 05:54:06;;;;;;;;;;;25.50;50.00;;;;;;1553687;76;606;-66
2022/09/07 05:56:08;;;;;;;;;;;25.50;50.00;;;;;;1546904;76;675;-64
2022/09/07 05:58:10;;;;;;;;;;;25.50;50.00;;;;;;1554609;76;655;-65
2022/09/07 06:00:13;;;;;;;;;;;25.50;50.00;;;;;;1550718;76;1141;-66
2022/09/07 06:02:15;;;;;;;;;;;25.50;50.00;;;;;;1552953;76;1920;-66
2022/09/07 06:04:17;;;;;;;;;;;25.50;50.00;;;;;;1548857;76;686;-65
2022/09/07 06:06:19;;;;;;;;;;;25.60;50.10;;;;;;1550460;75;1528;-65
2022/09/07 06:08:20;;;;;;;;;;;25.50;50.00;;;;;;1552922;76;734;-65
2022/09/07 06:10:22;;;;;;;;;;;25.60;49.90;;;;;;1551793;75;693;-66
2022/09/07 06:12:24;;;;;;;;;;;25.50;50.00;;;;;;1553411;76;802;-65
2022/09/07 06:14:26;;;;;;;;;;;25.60;49.90;;;;;;1545308;76;740;-66
2022/09/07 06:16:28;;;;;;;;;;;25.60;50.00;;;;;;1555057;76;723;-66
2022/09/07 06:18:31;;;;;;;;;;;25.60;49.90;;;;;;1545922;75;1146;-68
2022/09/07 06:20:32;;;;;;;;;;;25.60;49.80;;;;;;1551655;75;1565;-67
2022/09/07 06:22:35;;;;;;;;;;;25.60;49.70;;;;;;1550635;76;1942;-67
2022/09/07 06:24:37;;;;;;;;;;;25.70;49.70;;;;;;1553440;76;641;-66
2022/09/07 06:26:39;;;;;;;;;;;25.70;49.70;;;;;;1548985;75;707;-65
2022/09/07 06:28:42;;;;;;;;;;;25.70;49.60;;;;;;1547450;76;1108;-67
2022/09/07 06:30:43;;;;;;;;;;;25.70;49.60;;;;;;1550976;76;698;-66
2022/09/07 06:32:45;;;;;;;;;;;25.70;49.60;;;;;;1544640;76;722;-65
2022/09/07 06:34:47;;;;;;;;;;;25.60;49.60;;;;;;1553467;76;1572;-66
2022/09/07 06:36:49;;;;;;;;;;;25.70;49.60;;;;;;1551521;75;760;-67
2022/09/07 06:38:51;;;;;;;;;;;25.60;49.60;;;;;;1554440;76;1154;-66
2022/09/07 06:40:53;;;;;;;;;;;25.60;49.70;;;;;;1554132;76;686;-65
2022/09/07 06:42:55;;;;;;;;;;;25.60;49.60;;;;;;1554283;76;1923;-66
2022/09/07 06:44:57;;;;;;;;;;;25.60;49.50;;;;;;1552719;75;763;-66
2022/09/07 06:47:00;;;;;;;;;;;25.50;49.60;;;;;;1552050;76;707;-65
2022/09/07 06:49:02;;;;;;;;;;;25.50;49.60;;;;;;1550332;76;1554;-65
2022/09/07 06:51:04;;;;;;;;;;;25.50;49.60;;;;;;1549538;76;791;-65
2022/09/07 06:53:06;;;;;;;;;;;25.50;49.60;;;;;;1550287;75;721;-65
2022/09/07 06:55:08;;;;;;;;;;;25.50;49.60;;;;;;1553784;76;697;-66
2022/09/07 06:57:10;;;;;;;;;;;25.50;49.60;;;;;;1534086;76;796;-66
2022/09/07 06:59:12;;;;;;;;;;;25.50;49.50;;;;;;1553672;75;1213;-66
2022/09/07 07:01:15;;;;;;;;;;;25.50;49.50;;;;;;1545372;76;739;-65
2022/09/07 07:03:16;;;;;;;;;;;25.50;49.50;;;;;;1553275;75;1931;-65
2022/09/07 07:05:18;;;;;;;;;;;25.50;49.60;;;;;;1548365;75;683;-66
2022/09/07 07:07:20;;;;;;;;;;;25.50;49.50;;;;;;1546893;75;629;-66
2022/09/07 07:09:22;;;;;;;;;;;25.50;49.50;;;;;;1551764;76;1158;-65
2022/09/07 07:11:24;;;;;;;;;;;25.50;49.50;;;;;;1551641;76;691;-66
2022/09/07 07:13:26;;;;;;;;;;;25.50;49.50;;;;;;1547887;76;698;-65
2022/09/07 07:15:28;;;;;;;;;;;25.50;49.50;;;;;;1550036;76;685;-65
2022/09/07 07:17:30;;;;;;;;;;;25.50;49.40;;;;;;1512939;77;1709;-65
2022/09/07 07:19:32;;;;;;;;;;;25.50;49.50;;;;;;1553217;75;1158;-65
2022/09/07 07:21:33;;;;;;;;;;;25.50;49.50;;;;;;1546957;76;845;-66
2022/09/07 07:23:35;;;;;;;;;;;25.50;49.50;;;;;;1547721;76;1941;-65
2022/09/07 07:25:37;;;;;;;;;;;25.50;49.40;;;;;;1554320;76;732;-65
2022/09/07 07:27:39;;;;;;;;;;;25.50;49.50;;;;;;1549046;75;759;-66
2022/09/07 07:29:42;;;;;;;;;;;25.50;49.50;;;;;;1553670;76;1189;-65
2022/09/07 07:31:43;;;;;;;;;;;25.50;49.40;;;;;;1553843;76;1530;-66
2022/09/07 07:33:47;;;;;;;;;;;25.50;49.40;;;;;;1550352;76;720;-64
2022/09/07 07:35:49;;;;;;;;;;;25.50;49.40;;;;;;1542299;75;762;-66
2022/09/07 07:37:53;;;;;;;;;;;25.50;49.40;;;;;;1548201;76;692;-65
2022/09/07 07:39:55;;;;;;;;;;;25.50;49.40;;;;;;1549137;76;1138;-66
2022/09/07 07:41:57;;;;;;;;;;;25.50;49.40;;;;;;1553400;75;640;-65
2022/09/07 07:43:59;;;;;;;;;;;25.50;49.40;;;;;;1551965;75;1933;-67
2022/09/07 07:46:01;;;;;;;;;;;25.50;49.40;;;;;;1549319;75;1298;-65
2022/09/07 07:48:03;;;;;;;;;;;25.50;49.40;;;;;;1553244;76;702;-67
2022/09/07 07:50:05;;;;;;;;;;;25.50;49.30;;;;;;1544780;76;1097;-64
2022/09/07 07:52:07;;;;;;;;;;;25.50;49.30;;;;;;1545730;75;646;-65
2022/09/07 07:54:09;;;;;;;;;;;25.60;49.50;;;;;;1549691;76;748;-66
2022/09/07 07:56:11;;;;;;;;;;;25.70;49.60;;;;;;1552620;76;723;-65
2022/09/07 07:58:13;;;;;;;;;;;25.80;49.50;;;;;;1551372;76;697;-65
2022/09/07 08:00:16;;;;;;;;;;;25.70;49.50;;;;;;1553821;76;1831;-65
2022/09/07 08:02:17;;;;;;;;;;;25.70;49.50;;;;;;1553815;75;727;-65
2022/09/07 08:04:19;;;;;;;;;;;25.70;49.50;;;;;;1553120;76;1945;-65
2022/09/07 08:06:21;;;;;;;;;;;25.60;49.50;;;;;;1550369;75;807;-65
2022/09/07 08:08:23;;;;;;;;;;;25.60;49.60;;;;;;1550185;76;1182;-65
2022/09/07 08:10:27;;;;;;;;;;;25.50;49.70;;;;;;1551078;76;741;-65
2022/09/07 08:12:30;;;;;;;;;;;25.50;49.60;;;;;;1551362;76;1718;-65
2022/09/07 08:14:32;;;;;;;;;;;25.50;49.70;;;;;;1548241;75;1681;-65
2022/09/07 08:16:34;;;;;;;;;;;25.50;49.70;;;;;;1553363;76;686;-65
2022/09/07 08:18:36;;;;;;;;;;;25.50;49.70;;;;;;1552618;76;1153;-65
2022/09/07 08:20:39;;;;;;;;;;;25.40;49.70;;;;;;1549822;76;697;-65
2022/09/07 08:22:41;;;;;;;;;;;25.50;49.80;;;;;;1550769;75;682;-65
2022/09/07 08:24:42;;;;;;;;;;;25.50;49.80;;;;;;1554180;76;1954;-66
2022/09/07 08:26:44;;;;;;;;;;;25.40;49.80;;;;;;1554227;75;1382;-66
2022/09/07 08:28:47;;;;;;;;;;;25.40;49.80;;;;;;1553828;76;1161;-65
2022/09/07 08:30:49;;;;;;;;;;;25.50;49.80;;;;;;1548993;75;669;-65
2022/09/07 08:32:51;;;;;;;;;;;25.40;49.80;;;;;;1551966;76;976;-65
2022/09/07 08:34:52;;;;;;;;;;;25.50;49.80;;;;;;1553573;76;710;-65
2022/09/07 08:36:54;;;;;;;;;;;25.50;49.80;;;;;;1553886;75;706;-65
2022/09/07 08:38:56;;;;;;;;;;;25.40;49.80;;;;;;1553581;76;1176;-65
2022/09/07 08:40:58;;;;;;;;;;;25.40;49.80;;;;;;1554097;75;1591;-65
2022/09/07 08:43:02;;;;;;;;;;;25.40;49.80;;;;;;1554193;76;1942;-65
2022/09/07 08:45:08;;;;;;;;;;;25.50;49.80;;;;;;1554090;75;744;-65
2022/09/07 08:47:18;;;;;;;;;;;25.50;49.80;;;;;;1552426;76;1850;-65
2022/09/07 08:49:22;;;;;;;;;;;25.40;49.70;;;;;;1551284;76;1959;-65
2022/09/07 08:51:25;;;;;;;;;;;25.40;49.80;;;;;;1551030;76;1814;-65
2022/09/07 08:53:27;;;;;;;;;;;25.40;49.70;;;;;;1546599;75;1900;-65
2022/09/07 08:55:36;;;;;;;;;;;25.50;49.70;;;;;;1544018;76;1571;-65
2022/09/07 08:57:38;;;;;;;;;;;25.50;49.70;;;;;;1512265;77;725;-65
2022/09/07 08:59:41;;;;;;;;;;;25.50;49.60;;;;;;1547167;75;1186;-66
2022/09/07 09:01:43;;;;;;;;;;;25.50;49.50;;;;;;1546368;76;696;-65
2022/09/07 09:03:46;;;;;;;;;;;25.50;49.40;;;;;;1544858;76;1935;-64
2022/09/07 09:05:56;;;;;;;;;;;25.50;49.40;;;;;;1550985;75;705;-65
2022/09/07 09:08:02;;;;;;;;;;;25.60;49.20;;;;;;1546390;75;1999;-65
2022/09/07 09:10:17;;;;;;;;;;;25.60;49.20;;;;;;1543599;75;2110;-64
2022/09/07 09:12:23;;;;;;;;;;;25.60;49.30;;;;;;1550654;76;758;-65
2022/09/07 09:14:39;;;;;;;;;;;25.50;49.30;;;;;;1511135;75;1292;-64
2022/09/07 09:16:45;;;;;;;;;;;25.50;49.30;;;;;;1551215;76;696;-64
2022/09/07 09:18:55;;;;;;;;;;;25.50;49.30;;;;;;1540342;76;1119;-64
2022/09/07 09:20:57;;;;;;;;;;;25.50;49.30;;;;;;1542696;75;1892;-64
2022/09/07 09:23:03;;;;;;;;;;;25.60;49.30;;;;;;1545862;75;1197;-65
2022/09/07 09:25:19;;;;;;;;;;;25.50;49.30;;;;;;1550915;75;1936;-64
2022/09/07 09:27:21;;;;;;;;;;;25.60;49.20;;;;;;1548390;76;759;-63
2022/09/07 09:29:23;;;;;;;;;;;25.60;49.20;;;;;;1549654;76;1154;-64
2022/09/07 09:31:28;;;;;;;;;;;25.50;49.20;;;;;;1551910;76;698;-64
2022/09/07 09:33:30;;;;;;;;;;;25.50;49.20;;;;;;1552043;75;820;-63
2022/09/07 09:35:32;;;;;;;;;;;25.50;49.30;;;;;;1547633;76;657;-63
2022/09/07 09:37:34;;;;;;;;;;;25.50;49.30;;;;;;1521033;77;1549;-64
2022/09/07 09:39:36;;;;;;;;;;;25.60;49.20;;;;;;1556704;76;1134;-64
2022/09/07 09:41:38;;;;;;;;;;;25.60;49.20;;;;;;1551337;76;708;-64
2022/09/07 09:43:41;;;;;;;;;;;25.70;49.10;;;;;;1552484;75;1933;-64
2022/09/07 09:45:44;;;;;;;;;;;25.70;48.90;;;;;;1551303;76;692;-63
2022/09/07 09:47:48;;;;;;;;;;;25.60;48.90;;;;;;1541229;76;729;-64
2022/09/07 09:49:52;;;;;;;;;;;25.70;48.80;;;;;;1553688;76;1115;-63
2022/09/07 09:51:55;;;;;;;;;;;25.70;48.80;;;;;;1549131;75;1662;-64
2022/09/07 09:54:15;;;;;;;;;;;25.70;48.70;;;;;;1552864;75;631;-64
2022/09/07 09:56:17;;;;;;;;;;;25.70;48.70;;;;;;1550408;76;746;-64
2022/09/07 09:58:32;;;;;;;;;;;25.70;48.90;;;;;;1548837;76;703;-63
2022/09/07 10:00:34;;;;;;;;;;;25.70;48.80;;;;;;1553592;76;890;-64
2022/09/07 10:02:36;;;;;;;;;;;25.70;48.80;;;;;;1554947;75;643;-64
2022/09/07 10:04:38;;;;;;;;;;;25.70;48.90;;;;;;1551802;76;1939;-64
2022/09/07 10:06:39;;;;;;;;;;;25.60;48.90;;;;;;1557614;75;1364;-64
2022/09/07 10:08:43;;;;;;;;;;;25.70;48.90;;;;;;1506136;78;1178;-64
2022/09/07 10:10:51;;;;;;;;;;;25.70;48.80;;;;;;1545212;76;1793;-62
2022/09/07 10:12:53;;;;;;;;;;;25.70;48.80;;;;;;1552097;76;748;-63
2022/09/07 10:14:55;;;;;;;;;;;25.70;48.70;;;;;;1552515;75;766;-63
2022/09/07 10:16:57;;;;;;;;;;;25.70;48.60;;;;;;1551697;76;671;-64
2022/09/07 10:18:59;;;;;;;;;;;25.70;48.80;;;;;;1552164;76;1148;-64
2022/09/07 10:21:05;;;;;;;;;;;25.70;48.70;;;;;;1550409;76;1439;-64
2022/09/07 10:23:09;;;;;;;;;;;25.70;49.00;;;;;;1520647;75;1624;-64
2022/09/07 10:25:28;;;;;;;;;;;25.70;48.90;;;;;;1545299;75;1928;-64
2022/09/07 10:27:31;;;;;;;;;;;25.80;48.80;;;;;;1551050;76;675;-64
2022/09/07 10:29:37;;;;;;;;;;;25.70;48.70;;;;;;1551601;76;1146;-64
2022/09/07 10:31:53;;;;;;;;;;;25.90;48.50;;;;;;1544298;75;706;-63
2022/09/07 10:34:14;;;;;;;;;;;25.80;48.60;;;;;;1543556;75;1754;-63
2022/09/07 10:36:23;;;;;;;;;;;25.80;48.50;;;;;;1554792;75;697;-64
2022/09/07 10:38:25;;;;;;;;;;;25.80;48.50;;;;;;1549276;76;1816;-63
2022/09/07 10:40:44;;;;;;;;;;;25.90;48.60;;;;;;1552798;76;701;-63
2022/09/07 10:42:47;;;;;;;;;;;25.80;48.50;;;;;;1546975;76;1011;-63
2022/09/07 10:44:54;;;;;;;;;;;25.90;48.40;;;;;;1550102;75;1929;-63
2022/09/07 10:46:57;;;;;;;;;;;25.90;48.30;;;;;;1546797;76;2109;-61
2022/09/07 10:49:01;;;;;;;;;;;25.90;48.20;;;;;;1550601;72;2099;-64
2022/09/07 10:51:03;;;;;;;;;;;25.90;48.40;;;;;;1622930;72;1050;-67
2022/09/07 10:53:19;;;;;;;;;;;25.90;48.40;;;;;;1617342;73;681;-66
2022/09/07 10:55:26;;;;;;;;;;;25.80;48.40;;;;;;1617607;72;688;-66
2022/09/07 10:57:42;;;;;;;;;;;25.90;48.50;;;;;;1608672;73;648;-67
2022/09/07 10:59:48;;;;;;;;;;;25.90;48.60;;;;;;1583453;72;1137;-67
2022/09/07 11:01:54;;;;;;;;;;;25.80;48.40;;;;;;1592847;72;1585;-66
2022/09/07 11:04:03;;;;;;;;;;;25.90;48.30;;;;;;1619348;72;1977;-67
2022/09/07 11:06:09;;;;;;;;;;;26.00;48.60;;;;;;1616927;72;1016;-67
2022/09/07 11:08:26;;;;;;;;;;;26.00;48.60;;;;;;1621003;72;682;-68
2022/09/07 11:10:29;;;;;;;;;;;26.00;48.70;;;;;;1613092;73;1114;-67
2022/09/07 11:12:33;;;;;;;;;;;26.00;49.20;;;;;;1616500;73;690;-67
2022/09/07 11:14:38;;;;;;;;;;;26.00;49.50;;;;;;1618879;72;744;-67
2022/09/07 11:16:42;;;;;;;;;;;25.90;49.20;;;;;;1569310;74;1622;-67
2022/09/07 11:18:45;;;;;;;;;;;25.90;49.20;;;;;;1609716;73;2274;-67
2022/09/07 11:20:53;;;;;;;;;;;25.80;49.50;;;;;;1618418;72;873;-67
2022/09/07 11:22:53;;;;;;;;;;;25.80;49.40;;;;;;1616686;72;1629;-67
2022/09/07 11:24:57;;;;;;;;;;;25.90;49.20;;;;;;1613821;72;1952;-68
2022/09/07 11:27:02;;;;;;;;;;;25.90;48.90;;;;;;1609641;72;1415;-67
2022/09/07 11:29:06;;;;;;;;;;;26.00;49.30;;;;;;1621839;72;1124;-67
2022/09/07 11:31:09;;;;;;;;;;;25.90;49.40;;;;;;1622820;72;2077;-68
2022/09/07 11:33:13;;;;;;;;;;;26.00;50.00;;;;;;1618780;72;1758;-67
2022/09/07 11:35:16;;;;;;;;;;;25.90;49.20;;;;;;1621381;72;764;-65
2022/09/07 11:37:23;;;;;;;;;;;25.90;49.50;;;;;;1621200;73;696;-67
2022/09/07 11:39:35;;;;;;;;;;;25.90;49.40;;;;;;1617099;72;1140;-67
2022/09/07 11:41:40;;;;;;;;;;;25.90;49.40;;;;;;1604298;73;691;-67
2022/09/07 11:43:46;;;;;;;;;;;26.00;49.70;;;;;;1569747;74;1632;-67
2022/09/07 11:45:48;;;;;;;;;;;25.90;48.90;;;;;;1607426;72;1932;-67
2022/09/07 11:47:52;;;;;;;;;;;25.90;49.10;;;;;;1586978;74;728;-68
2022/09/07 11:49:54;;;;;;;;;;;25.90;49.10;;;;;;1619955;72;1513;-67
2022/09/07 11:51:57;;;;;;;;;;;25.90;48.90;;;;;;1583973;74;664;-67
2022/09/07 11:54:00;;;;;;;;;;;25.90;48.70;;;;;;1621288;73;734;-67
2022/09/07 11:56:07;;;;;;;;;;;25.90;48.70;;;;;;1620628;73;1517;-67
2022/09/07 11:58:27;;;;;;;;;;;25.90;48.60;;;;;;1617062;73;1597;-67
2022/09/07 12:00:30;;;;;;;;;;;26.00;49.10;;;;;;1621652;72;1126;-67
2022/09/07 12:02:34;;;;;;;;;;;26.00;48.90;;;;;;1614734;72;1889;-67
2022/09/07 12:04:43;;;;;;;;;;;26.00;48.80;;;;;;1602196;73;1936;-67
2022/09/07 12:06:47;;;;;;;;;;;26.00;48.70;;;;;;1592579;73;769;-66
2022/09/07 12:08:53;;;;;;;;;;;26.00;48.60;;;;;;1593092;73;1650;-69
2022/09/07 12:10:56;;;;;;;;;;;26.00;48.50;;;;;;1621221;73;1894;-67
2022/09/07 12:13:06;;;;;;;;;;;26.00;48.60;;;;;;1593165;74;1715;-67
2022/09/07 12:15:09;;;;;;;;;;;26.10;48.50;;;;;;1578866;74;835;-67
2022/09/07 12:17:22;;;;;;;;;;;26.00;48.40;;;;;;1593326;73;969;-67